Aérodrome :
LOGIN :

S'inscrire | Disclaimer

   EN    FR    IT 

 










Légende :    VFR   VFR Marginal   IFR   IFR Intensif   IFR Très Intensif
Visi : 
Plafond : 
>= 8 km
>= 3000ft
5 à 8 km
1000 à 3000 ft
1500m à 5 km
500 à 1000 ft
800 à 1500m
200 à 500 ft
< 800m
< 200 ft
Symboles :   Orages  Brouillard  Fortes neiges  Fortes précipitations  Vent > 20 kt
SIGMETs :   Divers  Orages  Givrage  Turbulence  Onde Orograph.  Cendres Volcan.







- Altitude de l'aérodrome : 325 ft
- Code IATA : BES
- Voir les cartes d'approche


LFRB - Brest

DERNIER METAR :
  • 240900Z AUTO 18010KT 9999 BKN012 OVC018 21/17 Q1015 BECMG BKN015

METARs EXPIRÉS :
  • 240830Z AUTO 19010KT 9999 OVC010 19/17 Q1015 BECMG BKN015
  • 240800Z AUTO 18008KT 9999 BKN008 OVC013 18/17 Q1015 BECMG BKN015
  • 240730Z AUTO 19008KT 9999 BKN006 OVC010 18/17 Q1014 BECMG BKN015
  • 240700Z AUTO 17006KT 7000 BKN006 OVC012 18/17 Q1014 BECMG BKN015
  • 240630Z AUTO 20006KT 9000 OVC005 17/17 Q1014 BECMG BKN015

TAF AMD TAF LFRB
Valide du 24 à 06h jusqu'au 25 à 12h UTC


240609Z 2406/2512 19005KT 5000 BR OVC003
BECMG 2406/2408 9999 NSW BKN010
BECMG 2408/2410 20010KT BKN015
BECMG 2411/2413 SCT020
ATIS : +33 2 98 32 02 71
Pas de NOTAMs connus pour ce terrain.



MET'MAP, la Météo Aéronautique d'un coup d'oeil ! - Copyright ORBIFLY Décembre 2007 - Disclaimer

ORBIFLY MET'MAP TEAM :

Programmation & Développement : Alexandra Zaïnal
Conception & Développement : Baudouin d'Aumeries
Co-Programmation & Développement : Marc-Olivier Méhu
Soutien technique & logistique : Manuel Goepfert

Contact : metmap@orbifly.com




SOURCES & CREDITS :

   NOAA